Time;durP1;ratioP1;P1;durP2;ratioP2;P2;SDS_P1;SDS_P2;PMS_P1;PMS_P2;Temp;Humidity;BMP_temperature;BMP_pressure;BME280_temperature;BME280_humidity;BME280_pressure;Samples;Min_cycle;Max_cycle;Signal;HPM_P1;HPM_P2
2022/07/03 00:01:41;;;;;;;2.55;0.60;;;16.30;99.90;;;;;;5047414;28;20474;-74
2022/07/03 00:04:07;;;;;;;2.63;0.75;;;16.30;99.90;;;;;;5040214;28;20040;-74
2022/07/03 00:06:33;;;;;;;3.22;0.60;;;16.20;99.90;;;;;;5040990;28;20519;-74
2022/07/03 00:09:00;;;;;;;1.90;0.60;;;16.30;99.90;;;;;;5037164;28;20155;-74
2022/07/03 00:11:26;;;;;;;3.50;0.70;;;16.20;99.90;;;;;;5039471;28;20026;-74
2022/07/03 00:13:52;;;;;;;2.28;1.02;;;16.20;99.90;;;;;;5039216;28;20354;-74
2022/07/03 00:16:17;;;;;;;2.15;0.60;;;16.20;99.90;;;;;;5046918;28;20485;-74
2022/07/03 00:18:43;;;;;;;2.97;0.70;;;16.10;99.90;;;;;;5041806;28;20087;-74
2022/07/03 00:21:10;;;;;;;2.53;0.80;;;16.10;99.90;;;;;;5035859;28;20083;-74
2022/07/03 00:23:51;;;;;;;3.25;0.70;;;16.00;99.90;;;;;;5036116;28;20040;-73
2022/07/03 00:26:20;;;;;;;4.78;0.90;;;16.10;99.90;;;;;;5037770;28;20406;-73
2022/07/03 00:28:46;;;;;;;3.05;0.95;;;16.00;99.90;;;;;;5039105;28;20036;-74
2022/07/03 00:31:12;;;;;;;5.07;1.13;;;16.00;99.90;;;;;;5030441;28;20053;-74
2022/07/03 00:33:38;;;;;;;3.67;0.82;;;16.00;99.90;;;;;;5040556;28;20041;-74
2022/07/03 00:36:05;;;;;;;2.75;0.95;;;15.90;99.90;;;;;;5042572;28;20036;-74
2022/07/03 00:38:31;;;;;;;3.38;0.90;;;15.90;99.90;;;;;;5032708;28;20468;-74
2022/07/03 00:40:56;;;;;;;3.55;1.08;;;15.90;99.90;;;;;;5044471;28;20040;-74
2022/07/03 00:43:25;;;;;;;3.35;1.00;;;15.80;99.90;;;;;;5033069;28;20045;-74
2022/07/03 00:45:50;;;;;;;5.47;1.55;;;15.80;99.90;;;;;;5033822;28;20504;-74
2022/07/03 00:48:19;;;;;;;3.20;1.10;;;15.70;99.90;;;;;;5031634;28;20033;-74
2022/07/03 00:50:50;;;;;;;3.92;0.93;;;15.70;99.90;;;;;;5032685;28;20595;-74
2022/07/03 00:53:28;;;;;;;1.58;0.77;;;15.60;99.90;;;;;;5035981;28;20029;-74
2022/07/03 00:55:55;;;;;;;3.08;1.60;;;15.60;99.90;;;;;;5034654;28;20044;-74
2022/07/03 00:58:21;;;;;;;2.63;1.70;;;15.60;99.90;;;;;;5044105;28;20044;-73
2022/07/03 01:00:49;;;;;;;5.00;1.40;;;15.60;99.90;;;;;;5043044;28;20025;-74
2022/07/03 01:03:20;;;;;;;6.47;1.73;;;15.60;99.90;;;;;;5028453;28;20092;-74
2022/07/03 01:05:51;;;;;;;5.53;1.80;;;15.60;99.90;;;;;;5030962;28;20029;-74
2022/07/03 01:08:50;;;;;;;3.83;2.20;;;15.60;99.90;;;;;;5031512;28;20033;-73
2022/07/03 01:11:38;;;;;;;4.30;1.90;;;15.50;99.90;;;;;;5030574;28;20033;-74
2022/07/03 01:14:17;;;;;;;6.38;1.92;;;15.50;99.90;;;;;;5035091;28;20051;-74
2022/07/03 01:17:21;;;;;;;4.35;2.47;;;15.50;99.90;;;;;;5040384;28;20043;-74
2022/07/03 01:19:49;;;;;;;4.07;2.40;;;15.50;99.90;;;;;;5040996;28;20478;-73
2022/07/03 01:22:34;;;;;;;3.35;2.45;;;15.50;99.90;;;;;;5046349;28;20108;-74
2022/07/03 01:25:16;;;;;;;6.28;2.85;;;15.40;99.90;;;;;;5040958;28;20028;-73
2022/07/03 01:27:58;;;;;;;4.50;3.30;;;15.40;99.90;;;;;;5033524;28;20029;-73
2022/07/03 01:30:25;;;;;;;;;;;15.30;99.90;;;;;;5051148;28;20113;-73
2022/07/03 01:33:01;;;;;;;4.40;3.17;;;15.20;99.90;;;;;;5042835;28;19916;-73
2022/07/03 01:35:33;;;;;;;6.90;3.83;;;15.20;99.90;;;;;;5039339;28;20549;-73
2022/07/03 01:38:04;;;;;;;4.97;3.63;;;15.30;99.90;;;;;;5030089;28;20049;-74
2022/07/03 01:40:32;;;;;;;6.45;3.67;;;15.30;99.90;;;;;;5037080;28;20477;-74
2022/07/03 01:42:59;;;;;;;7.35;4.53;;;15.30;99.90;;;;;;5048251;28;20029;-73
2022/07/03 01:45:28;;;;;;;11.23;3.92;;;15.30;99.90;;;;;;5042463;28;20033;-73
2022/07/03 01:47:58;;;;;;;6.07;4.38;;;15.30;99.90;;;;;;5042542;28;20071;-73
2022/07/03 01:50:26;;;;;;;5.72;4.15;;;15.30;99.90;;;;;;5036387;28;20495;-73
2022/07/03 01:52:52;;;;;;;5.70;4.20;;;15.30;99.90;;;;;;5039449;28;20075;-73
2022/07/03 01:55:20;;;;;;;15.60;4.25;;;15.30;99.90;;;;;;5034063;28;20022;-73
2022/07/03 01:57:48;;;;;;;7.60;4.28;;;15.20;99.90;;;;;;5033613;28;20052;-74
2022/07/03 02:00:18;;;;;;;8.15;3.90;;;15.20;99.90;;;;;;5038383;28;20102;-74
2022/07/03 02:03:02;;;;;;;6.70;4.18;;;15.10;99.90;;;;;;5045558;28;20029;-73
2022/07/03 02:05:37;;;;;;;8.55;5.15;;;15.10;99.90;;;;;;5051708;28;20033;-74
2022/07/03 02:08:41;;;;;;;6.50;3.80;;;15.00;99.90;;;;;;5050515;28;20066;-74
2022/07/03 02:11:21;;;;;;;6.75;4.20;;;15.00;99.90;;;;;;5046839;28;20040;-74
2022/07/03 02:14:14;;;;;;;6.47;4.20;;;14.90;99.90;;;;;;5028905;28;20064;-74
2022/07/03 02:16:56;;;;;;;10.90;5.47;;;14.90;99.90;;;;;;5033463;28;20031;-74
2022/07/03 02:19:41;;;;;;;6.15;4.80;;;14.80;99.90;;;;;;5033450;28;20514;-73
2022/07/03 02:22:08;;;;;;;6.15;4.13;;;14.80;99.90;;;;;;5042161;28;20087;-73
2022/07/03 02:24:43;;;;;;;7.93;4.95;;;14.70;99.90;;;;;;5033890;28;20103;-74
2022/07/03 02:27:15;;;;;;;5.57;4.43;;;14.60;99.90;;;;;;5041716;28;20013;-74
2022/07/03 02:29:55;;;;;;;7.50;4.85;;;14.60;99.90;;;;;;5039931;28;20065;-74
2022/07/03 02:32:22;;;;;;;6.97;5.00;;;14.50;99.90;;;;;;5045880;28;20381;-73
2022/07/03 02:34:58;;;;;;;9.48;5.50;;;14.50;99.90;;;;;;5035316;28;20102;-73
2022/07/03 02:37:28;;;;;;;9.43;5.50;;;14.40;99.90;;;;;;5035577;28;20045;-73
2022/07/03 02:40:14;;;;;;;10.88;4.97;;;14.40;99.90;;;;;;5031753;28;20033;-73
2022/07/03 02:42:53;;;;;;;8.10;5.20;;;14.30;99.90;;;;;;5033631;28;20048;-73
2022/07/03 02:45:22;;;;;;;7.60;4.97;;;14.30;99.90;;;;;;5035436;28;20029;-73
2022/07/03 02:48:04;;;;;;;7.28;5.72;;;14.20;99.90;;;;;;5042354;28;20471;-73
2022/07/03 02:50:33;;;;;;;6.10;5.20;;;14.20;99.90;;;;;;5032531;28;20025;-73
2022/07/03 02:53:19;;;;;;;11.05;5.28;;;14.10;99.90;;;;;;5042070;28;20034;-73
2022/07/03 02:55:46;;;;;;;8.68;5.18;;;14.10;99.90;;;;;;5036293;28;20024;-73
2022/07/03 02:58:30;;;;;;;8.43;5.40;;;14.00;99.90;;;;;;5033741;28;20035;-73
2022/07/03 03:01:30;;;;;;;6.63;4.57;;;14.00;99.90;;;;;;5033870;28;20124;-73
2022/07/03 03:04:21;;;;;;;7.45;4.95;;;14.00;99.90;;;;;;5015938;28;20154;-73
2022/07/03 03:06:54;;;;;;;6.40;4.93;;;13.90;99.90;;;;;;5032543;28;20133;-74
2022/07/03 03:09:25;;;;;;;6.40;5.45;;;13.90;99.90;;;;;;5043876;28;20033;-74
2022/07/03 03:11:55;;;;;;;9.18;5.40;;;13.90;99.90;;;;;;5044194;28;20037;-73
2022/07/03 03:14:25;;;;;;;8.05;5.45;;;13.90;99.90;;;;;;5034445;28;20500;-74
2022/07/03 03:16:52;;;;;;;7.30;5.28;;;13.80;99.90;;;;;;5034684;28;20029;-73
2022/07/03 03:19:23;;;;;;;8.27;6.18;;;13.80;99.90;;;;;;5030326;28;20029;-73
2022/07/03 03:22:09;;;;;;;9.00;5.60;;;13.80;99.90;;;;;;5037101;28;20030;-72
2022/07/03 03:24:35;;;;;;;7.13;5.93;;;13.70;99.90;;;;;;5042674;28;20032;-73
2022/07/03 03:27:00;;;;;;;8.65;5.90;;;13.70;99.90;;;;;;5032169;28;20052;-73
2022/07/03 03:29:27;;;;;;;9.32;4.93;;;13.70;99.90;;;;;;5026947;28;20132;-73
2022/07/03 03:31:53;;;;;;;7.32;5.60;;;13.70;99.90;;;;;;5033032;28;20056;-73
2022/07/03 03:34:21;;;;;;;9.63;5.28;;;13.60;99.90;;;;;;5040225;28;20060;-73
2022/07/03 03:36:47;;;;;;;8.20;5.45;;;13.60;99.90;;;;;;5030432;28;20501;-73
2022/07/03 03:39:14;;;;;;;7.93;5.68;;;13.60;99.90;;;;;;5045146;28;20060;-73
2022/07/03 03:41:39;;;;;;;7.63;5.55;;;13.60;99.90;;;;;;5030524;28;20025;-72
2022/07/03 03:44:05;;;;;;;8.82;5.70;;;13.70;99.90;;;;;;5027665;28;20469;-74
2022/07/03 03:46:31;;;;;;;8.05;6.03;;;13.70;99.90;;;;;;5046411;28;20025;-74
2022/07/03 03:48:56;;;;;;;12.32;6.75;;;13.70;99.90;;;;;;5045776;28;20025;-73
2022/07/03 03:51:22;;;;;;;8.48;6.25;;;13.70;99.90;;;;;;5042083;28;20069;-75
2022/07/03 03:53:48;;;;;;;9.23;5.60;;;13.80;99.90;;;;;;5032912;28;20033;-75
2022/07/03 03:56:14;;;;;;;7.68;5.88;;;13.80;99.90;;;;;;5031228;28;20037;-75
2022/07/03 03:58:41;;;;;;;10.38;5.78;;;13.80;99.90;;;;;;5042418;28;20401;-75
2022/07/03 04:01:08;;;;;;;7.38;5.40;;;13.80;99.90;;;;;;5036610;28;20125;-75
2022/07/03 04:03:35;;;;;;;8.13;6.05;;;13.90;99.90;;;;;;5037330;28;20021;-75
2022/07/03 04:06:01;;;;;;;8.07;6.35;;;13.90;99.90;;;;;;5035431;28;20017;-74
2022/07/03 04:08:27;;;;;;;7.57;5.40;;;13.90;99.90;;;;;;5040933;28;20048;-75
2022/07/03 04:10:53;;;;;;;8.82;5.47;;;14.00;99.90;;;;;;5038014;28;20056;-75
2022/07/03 04:13:19;;;;;;;5.80;4.82;;;14.00;99.90;;;;;;5035011;28;20106;-75
2022/07/03 04:15:46;;;;;;;8.25;4.88;;;14.00;99.90;;;;;;5034318;28;20029;-75
2022/07/03 04:18:12;;;;;;;10.65;4.97;;;14.00;99.90;;;;;;5039720;28;20029;-74
2022/07/03 04:20:37;;;;;;;8.52;4.65;;;14.00;99.90;;;;;;5046811;28;20496;-74
2022/07/03 04:23:04;;;;;;;7.05;4.88;;;14.00;99.90;;;;;;5039723;28;20025;-74
2022/07/03 04:25:30;;;;;;;10.20;6.35;;;14.00;99.90;;;;;;5038932;28;20030;-75
2022/07/03 04:27:56;;;;;;;7.75;6.30;;;14.00;99.90;;;;;;5039736;28;20055;-72
2022/07/03 04:30:22;;;;;;;7.03;6.05;;;14.00;99.90;;;;;;5035789;28;20029;-73
2022/07/03 04:32:48;;;;;;;8.07;6.25;;;14.00;99.90;;;;;;5044997;28;20033;-73
2022/07/03 04:35:14;;;;;;;8.55;6.43;;;14.00;99.90;;;;;;5042109;28;20040;-74
2022/07/03 04:37:41;;;;;;;8.68;7.55;;;14.10;99.90;;;;;;5045716;28;20500;-73
2022/07/03 04:40:07;;;;;;;9.32;7.30;;;14.10;99.90;;;;;;5036976;28;20030;-73
2022/07/03 04:42:33;;;;;;;8.93;6.95;;;14.20;99.90;;;;;;5041013;28;20041;-73
2022/07/03 04:44:58;;;;;;;8.73;7.53;;;14.30;99.90;;;;;;5034807;28;20060;-73
2022/07/03 04:47:24;;;;;;;9.65;7.55;;;14.40;99.90;;;;;;5039642;28;20037;-73
2022/07/03 04:49:49;;;;;;;14.05;7.43;;;14.60;99.90;;;;;;5040577;28;20025;-73
2022/07/03 04:52:15;;;;;;;11.05;7.63;;;14.70;99.90;;;;;;5039277;28;20036;-73
2022/07/03 04:54:40;;;;;;;10.60;6.88;;;14.90;99.90;;;;;;5039972;28;20440;-73
2022/07/03 04:57:06;;;;;;;12.27;6.88;;;15.10;99.90;;;;;;5033028;28;20061;-74
2022/07/03 04:59:32;;;;;;;8.57;6.03;;;15.50;99.90;;;;;;5035928;28;20128;-74
2022/07/03 05:01:57;;;;;;;11.10;5.03;;;16.00;99.90;;;;;;5033166;28;20033;-74
2022/07/03 05:04:23;;;;;;;6.35;3.88;;;16.60;99.90;;;;;;5034573;28;20033;-74
2022/07/03 05:06:48;;;;;;;4.05;3.45;;;17.20;99.90;;;;;;5046900;28;20087;-74
2022/07/03 05:09:14;;;;;;;6.03;3.40;;;17.80;99.90;;;;;;5039077;28;20073;-74
2022/07/03 05:11:41;;;;;;;6.85;3.13;;;18.30;99.90;;;;;;5036736;28;20049;-74
2022/07/03 05:14:06;;;;;;;7.03;3.20;;;18.80;99.90;;;;;;5046586;28;20143;-74
2022/07/03 05:16:32;;;;;;;3.83;2.85;;;19.00;99.90;;;;;;5035724;28;20045;-74
2022/07/03 05:18:58;;;;;;;7.60;3.45;;;18.90;99.90;;;;;;5049455;28;20079;-73
2022/07/03 05:21:23;;;;;;;4.43;3.10;;;18.80;99.90;;;;;;5047779;28;20532;-73
2022/07/03 05:23:49;;;;;;;5.93;3.38;;;18.60;99.90;;;;;;5031693;28;20477;-73
2022/07/03 05:26:15;;;;;;;6.13;3.40;;;18.30;99.90;;;;;;5038860;28;20044;-73
2022/07/03 05:28:41;;;;;;;5.55;3.08;;;18.20;99.90;;;;;;5035993;28;20037;-73
2022/07/03 05:31:06;;;;;;;3.55;2.92;;;18.30;99.90;;;;;;5035500;28;20021;-74
2022/07/03 05:33:32;;;;;;;6.43;2.70;;;18.50;99.90;;;;;;5039449;28;20112;-75
2022/07/03 05:35:59;;;;;;;4.57;3.00;;;18.70;99.90;;;;;;5031709;28;20048;-74
2022/07/03 05:41:10;;;;;;;3.47;2.53;;;19.50;99.90;;;;;;5042117;28;20400;-74
2022/07/03 05:43:39;;;;;;;4.03;2.75;;;19.90;99.90;;;;;;5029535;28;20031;-74
2022/07/03 05:46:05;;;;;;;3.53;2.08;;;20.20;99.90;;;;;;5044383;28;20033;-74
2022/07/03 05:48:31;;;;;;;5.05;2.50;;;20.50;99.90;;;;;;5038116;28;20378;-75
2022/07/03 05:50:56;;;;;;;3.67;1.70;;;20.70;99.90;;;;;;5030205;28;20071;-74
2022/07/03 05:53:22;;;;;;;4.40;2.45;;;20.70;99.90;;;;;;5036402;28;20463;-74
2022/07/03 05:55:48;;;;;;;5.20;2.47;;;20.80;99.90;;;;;;5045512;28;20029;-74
2022/07/03 05:58:14;;;;;;;4.50;1.77;;;20.80;99.90;;;;;;5032821;28;20485;-75
2022/07/03 06:00:40;;;;;;;5.95;1.95;;;20.70;99.90;;;;;;5045128;28;20108;-74
2022/07/03 06:03:06;;;;;;;3.13;1.40;;;20.40;99.90;;;;;;5046675;28;20049;-75
2022/07/03 06:05:32;;;;;;;2.90;1.90;;;20.30;99.90;;;;;;5036253;28;20029;-75
2022/07/03 06:07:58;;;;;;;2.67;1.60;;;20.20;99.90;;;;;;5034610;28;20041;-74
2022/07/03 06:10:24;;;;;;;4.18;1.80;;;20.10;99.90;;;;;;5045880;28;20370;-74
2022/07/03 06:12:50;;;;;;;3.85;2.00;;;20.00;99.90;;;;;;5033720;28;20025;-74
2022/07/03 06:15:16;;;;;;;6.78;1.30;;;19.90;99.90;;;;;;5041714;28;20079;-74
2022/07/03 06:17:43;;;;;;;4.97;1.30;;;19.90;99.90;;;;;;5032609;28;20162;-74
2022/07/03 06:20:09;;;;;;;6.45;1.13;;;19.90;99.90;;;;;;5025637;28;20029;-74
2022/07/03 06:22:35;;;;;;;6.07;1.48;;;20.00;99.90;;;;;;5044472;28;20433;-74
2022/07/03 06:25:00;;;;;;;3.05;1.10;;;20.00;99.90;;;;;;5043945;28;20111;-73
2022/07/03 06:27:26;;;;;;;3.80;1.40;;;20.10;99.90;;;;;;5039807;28;20087;-72
2022/07/03 06:29:52;;;;;;;2.67;1.30;;;20.00;99.90;;;;;;5034195;28;20017;-74
2022/07/03 06:32:18;;;;;;;4.25;1.50;;;19.90;99.90;;;;;;5039490;28;20028;-75
2022/07/03 06:34:43;;;;;;;5.32;1.10;;;19.90;99.90;;;;;;5041043;28;20025;-73
2022/07/03 06:37:10;;;;;;;3.00;1.52;;;19.90;99.90;;;;;;5037910;28;20097;-73
2022/07/03 06:39:35;;;;;;;4.00;1.30;;;19.90;99.90;;;;;;5030865;28;20033;-73
2022/07/03 06:42:01;;;;;;;7.50;1.80;;;19.90;99.90;;;;;;5036586;28;20041;-73
2022/07/03 06:44:27;;;;;;;4.72;1.45;;;19.90;99.90;;;;;;5032615;28;21264;-72
2022/07/03 06:46:52;;;;;;;3.88;1.20;;;19.90;99.90;;;;;;5035217;28;20052;-73
2022/07/03 06:49:18;;;;;;;5.60;1.25;;;19.90;99.90;;;;;;5037753;28;20115;-73
2022/07/03 06:51:44;;;;;;;4.25;1.20;;;19.90;99.90;;;;;;5030335;28;20464;-72
2022/07/03 06:54:09;;;;;;;8.38;1.13;;;19.90;99.90;;;;;;5030036;28;20497;-73
2022/07/03 06:56:35;;;;;;;3.55;1.00;;;19.90;99.90;;;;;;5028201;28;20719;-74
2022/07/03 06:59:00;;;;;;;7.82;0.95;;;20.00;99.90;;;;;;5032607;28;20044;-73
2022/07/03 07:01:26;;;;;;;4.93;1.00;;;20.00;99.90;;;;;;5033400;28;20032;-73
2022/07/03 07:03:51;;;;;;;5.00;1.08;;;20.10;99.90;;;;;;5036634;28;20389;-73
2022/07/03 07:06:17;;;;;;;2.47;0.70;;;20.30;99.90;;;;;;5044585;28;20028;-73
2022/07/03 07:08:42;;;;;;;4.65;1.00;;;20.30;99.90;;;;;;5036336;28;20124;-73
2022/07/03 07:11:08;;;;;;;5.10;0.90;;;20.40;99.90;;;;;;5033252;28;20037;-73
2022/07/03 07:13:33;;;;;;;4.50;0.77;;;20.40;99.90;;;;;;5045569;28;20078;-74
2022/07/03 07:16:00;;;;;;;4.57;0.65;;;20.50;99.90;;;;;;5043204;28;20021;-74
2022/07/03 07:18:26;;;;;;;6.07;1.10;;;20.40;99.90;;;;;;5033327;28;20583;-73
2022/07/03 07:20:51;;;;;;;6.25;0.77;;;20.40;99.90;;;;;;5041489;28;20025;-72
2022/07/03 07:23:17;;;;;;;4.50;0.75;;;20.40;99.90;;;;;;5035165;28;20029;-73
2022/07/03 07:25:43;;;;;;;6.72;0.90;;;20.50;99.90;;;;;;5045189;28;20021;-74
2022/07/03 07:28:08;;;;;;;3.92;0.77;;;20.60;99.90;;;;;;5045961;28;20033;-74
2022/07/03 07:30:34;;;;;;;3.42;0.75;;;20.80;99.90;;;;;;5041773;28;20083;-74
2022/07/03 07:32:59;;;;;;;3.25;0.55;;;20.80;99.90;;;;;;5038450;28;20052;-75
2022/07/03 07:35:25;;;;;;;3.78;0.70;;;20.90;99.90;;;;;;5041959;28;20336;-74
2022/07/03 07:37:50;;;;;;;4.10;0.90;;;21.00;99.90;;;;;;5030780;28;21490;-74
2022/07/03 07:40:16;;;;;;;3.72;0.80;;;21.00;99.90;;;;;;5034978;28;20088;-74
2022/07/03 07:42:42;;;;;;;4.25;0.70;;;21.10;99.90;;;;;;5046578;28;20026;-74
2022/07/03 07:45:09;;;;;;;3.38;0.65;;;21.10;99.90;;;;;;5042961;28;20477;-75
2022/07/03 07:47:34;;;;;;;1.92;0.52;;;21.10;99.90;;;;;;5035806;28;20501;-74
2022/07/03 07:50:00;;;;;;;3.38;0.95;;;21.10;99.90;;;;;;5035398;28;20036;-75
2022/07/03 07:52:25;;;;;;;4.93;0.90;;;21.20;99.90;;;;;;5039605;28;20034;-74
2022/07/03 07:54:51;;;;;;;3.72;0.60;;;21.20;99.90;;;;;;5042665;28;20136;-75
2022/07/03 07:57:17;;;;;;;2.72;0.60;;;21.20;99.90;;;;;;5049945;28;20052;-74
2022/07/03 07:59:42;;;;;;;3.58;0.80;;;21.20;99.90;;;;;;5039463;28;20107;-74
2022/07/03 08:07:36;;;;;;;2.30;0.38;;;21.40;99.90;;;;;;5051443;28;20067;-74
2022/07/03 08:10:02;;;;;;;1.92;0.30;;;21.50;99.90;;;;;;5044649;28;20477;-74
2022/07/03 08:12:28;;;;;;;3.80;0.40;;;21.50;99.90;;;;;;5036575;28;20519;-74
2022/07/03 08:14:53;;;;;;;3.78;0.60;;;21.50;99.90;;;;;;5037184;28;20044;-74
2022/07/03 08:17:19;;;;;;;1.73;0.40;;;21.60;99.90;;;;;;5043907;28;20122;-75
2022/07/03 08:19:44;;;;;;;4.07;0.43;;;21.70;99.90;;;;;;5039461;28;20090;-74
2022/07/03 08:22:10;;;;;;;1.60;0.43;;;21.70;99.90;;;;;;5040161;28;20079;-73
2022/07/03 08:24:37;;;;;;;2.35;0.40;;;21.70;99.90;;;;;;5037609;28;20041;-73
2022/07/03 08:27:03;;;;;;;2.25;0.40;;;21.70;99.70;;;;;;5042013;28;20032;-73
2022/07/03 08:29:29;;;;;;;1.92;0.50;;;21.70;99.60;;;;;;5036371;28;20532;-74
2022/07/03 08:31:55;;;;;;;3.35;0.40;;;21.70;99.80;;;;;;5049910;28;20037;-73
2022/07/03 08:34:20;;;;;;;4.85;0.50;;;21.80;99.70;;;;;;5041341;28;20040;-73
2022/07/03 08:36:46;;;;;;;1.90;0.60;;;21.90;99.80;;;;;;5040695;28;20581;-74
2022/07/03 08:39:12;;;;;;;3.05;0.50;;;22.00;99.80;;;;;;5042928;28;20056;-74
2022/07/03 08:41:40;;;;;;;6.00;0.70;;;22.00;99.80;;;;;;5044468;28;20408;-75
2022/07/03 08:44:08;;;;;;;2.70;0.80;;;22.10;99.50;;;;;;5049762;28;20047;-75
2022/07/03 08:46:35;;;;;;;1.65;0.80;;;22.30;99.60;;;;;;5044669;28;20112;-74
2022/07/03 08:49:02;;;;;;;1.58;0.40;;;22.40;99.50;;;;;;5041604;28;20047;-75
2022/07/03 08:51:28;;;;;;;3.53;0.40;;;22.50;98.80;;;;;;5042000;28;20035;-74
2022/07/03 08:53:54;;;;;;;2.05;0.40;;;22.50;98.70;;;;;;5035945;28;20029;-74
2022/07/03 08:56:21;;;;;;;2.25;0.40;;;22.50;98.60;;;;;;5033930;28;20393;-74
2022/07/03 08:58:47;;;;;;;5.28;0.60;;;22.60;98.80;;;;;;5047903;28;20025;-75
2022/07/03 09:01:17;;;;;;;2.05;0.40;;;22.60;98.60;;;;;;5041969;28;20028;-75
2022/07/03 09:03:44;;;;;;;5.97;0.70;;;22.40;98.90;;;;;;5041465;28;20032;-74
2022/07/03 09:06:11;;;;;;;3.53;0.50;;;22.30;98.80;;;;;;5033019;28;20378;-75
2022/07/03 09:08:38;;;;;;;3.95;0.68;;;22.20;98.90;;;;;;5040730;28;20025;-75
2022/07/03 09:11:04;;;;;;;4.13;0.50;;;22.20;98.90;;;;;;5036398;28;20377;-75
2022/07/03 09:13:29;;;;;;;2.03;0.43;;;22.30;98.80;;;;;;5033364;28;20041;-75
2022/07/03 09:15:55;;;;;;;2.90;0.40;;;22.30;99.10;;;;;;5045935;28;20033;-75
2022/07/03 09:18:39;;;;;;;3.45;0.50;;;22.30;98.80;;;;;;5044448;28;20083;-75
2022/07/03 09:21:05;;;;;;;2.65;0.50;;;22.40;98.40;;;;;;5043470;28;20047;-75
2022/07/03 09:23:41;;;;;;;2.70;0.40;;;22.40;98.50;;;;;;5048722;28;20025;-74
2022/07/03 09:26:15;;;;;;;2.67;0.50;;;22.40;98.80;;;;;;5042655;28;20029;-75
2022/07/03 09:28:52;;;;;;;2.45;0.40;;;22.50;98.40;;;;;;5038249;28;20393;-75
2022/07/03 09:31:24;;;;;;;2.40;0.47;;;22.70;98.30;;;;;;5034617;28;20086;-75
2022/07/03 09:34:03;;;;;;;;;;;22.80;97.90;;;;;;5048781;28;20029;-75
2022/07/03 09:36:50;;;;;;;2.67;0.52;;;22.80;97.90;;;;;;5038701;28;20003;-74
2022/07/03 09:39:25;;;;;;;4.60;0.90;;;22.90;97.60;;;;;;5039134;28;20095;-74
2022/07/03 09:41:55;;;;;;;3.00;0.50;;;23.00;97.10;;;;;;5036461;28;20572;-75
2022/07/03 09:44:36;;;;;;;3.92;0.50;;;22.90;97.10;;;;;;5039899;28;20025;-75
2022/07/03 09:47:24;;;;;;;2.67;0.40;;;23.00;97.30;;;;;;5035282;28;20567;-75
2022/07/03 09:49:54;;;;;;;2.90;0.40;;;23.10;97.20;;;;;;5040662;28;20087;-75
2022/07/03 09:52:31;;;;;;;2.17;0.40;;;23.30;97.10;;;;;;5033976;28;20505;-75
2022/07/03 09:54:59;;;;;;;2.60;0.60;;;23.20;96.90;;;;;;5035667;28;20028;-75
2022/07/03 09:57:30;;;;;;;3.97;0.40;;;23.30;96.90;;;;;;5040489;28;20358;-74
2022/07/03 10:00:12;;;;;;;2.65;0.35;;;23.40;96.60;;;;;;5045209;28;20029;-75
2022/07/03 10:03:03;;;;;;;5.32;0.40;;;23.40;96.70;;;;;;5033275;28;20017;-75
2022/07/03 10:05:34;;;;;;;1.77;0.30;;;23.40;96.40;;;;;;5038256;28;20477;-75
2022/07/03 10:08:15;;;;;;;3.38;0.40;;;23.40;96.10;;;;;;5024773;28;20045;-75
2022/07/03 10:10:43;;;;;;;1.70;0.20;;;23.40;95.90;;;;;;5033689;28;20388;-75
2022/07/03 10:13:09;;;;;;;2.58;0.35;;;23.40;96.30;;;;;;5032714;28;20116;-75
2022/07/03 10:15:37;;;;;;;3.15;0.30;;;23.40;95.60;;;;;;5034299;28;20152;-76
2022/07/03 10:18:07;;;;;;;2.78;0.52;;;23.40;95.90;;;;;;5036815;28;20032;-75
2022/07/03 10:20:48;;;;;;;1.58;0.20;;;23.50;95.40;;;;;;5033000;28;20029;-75
2022/07/03 10:23:20;;;;;;;1.42;0.25;;;23.50;95.20;;;;;;5032795;28;20021;-75
2022/07/03 10:25:47;;;;;;;1.88;0.30;;;23.40;94.60;;;;;;5033899;28;20112;-75
2022/07/03 10:28:14;;;;;;;5.78;4.68;;;23.40;94.60;;;;;;5045136;28;20037;-74
2022/07/03 10:30:42;;;;;;;1.27;0.50;;;23.40;94.50;;;;;;5046449;28;20029;-74
2022/07/03 10:33:08;;;;;;;3.50;0.40;;;23.50;94.60;;;;;;5033927;28;20561;-75
2022/07/03 10:35:36;;;;;;;1.10;0.30;;;23.80;94.60;;;;;;5044339;28;20060;-75
2022/07/03 10:38:01;;;;;;;6.25;0.30;;;23.90;94.30;;;;;;5044177;28;20080;-73
2022/07/03 10:46:33;;;;;;;2.95;0.43;;;24.10;94.00;;;;;;5035774;28;20032;-73
2022/07/03 10:49:07;;;;;;;3.17;0.40;;;24.20;94.10;;;;;;5033146;28;20500;-74
2022/07/03 10:51:45;;;;;;;1.75;0.32;;;24.30;93.60;;;;;;5028712;28;20036;-75
2022/07/03 10:54:19;;;;;;;2.58;0.35;;;24.30;93.20;;;;;;5040416;28;20032;-74
2022/07/03 10:57:02;;;;;;;2.20;0.20;;;24.30;93.00;;;;;;5038675;28;20040;-76
2022/07/03 10:59:43;;;;;;;2.30;0.40;;;24.10;92.90;;;;;;5044184;28;20025;-75
2022/07/03 11:02:27;;;;;;;1.52;0.40;;;24.00;93.10;;;;;;5046107;28;20424;-75
2022/07/03 11:05:02;;;;;;;1.75;0.35;;;23.90;93.10;;;;;;5037710;28;20029;-75
2022/07/03 11:07:44;;;;;;;2.63;0.40;;;23.80;93.00;;;;;;5038207;28;20033;-75
2022/07/03 11:10:12;;;;;;;1.55;0.40;;;24.00;93.20;;;;;;5041122;28;20052;-75
2022/07/03 11:12:56;;;;;;;2.30;0.40;;;24.10;93.00;;;;;;5043321;28;20033;-75
2022/07/03 11:15:27;;;;;;;1.58;0.30;;;24.40;92.70;;;;;;5046053;28;20037;-75
2022/07/03 11:18:10;;;;;;;2.13;0.40;;;24.70;92.50;;;;;;5035615;28;20478;-75
2022/07/03 11:20:44;;;;;;;2.53;0.40;;;24.70;91.60;;;;;;5042075;28;20413;-75
2022/07/03 11:23:09;;;;;;;1.42;0.40;;;24.50;91.80;;;;;;5050142;28;20037;-75
2022/07/03 11:25:42;;;;;;;1.23;0.25;;;24.50;92.10;;;;;;5037246;28;20135;-72
2022/07/03 11:28:27;;;;;;;3.22;0.50;;;24.50;92.30;;;;;;5044367;28;20041;-76
2022/07/03 11:31:13;;;;;;;2.03;0.30;;;24.70;91.90;;;;;;5041240;28;20128;-75
2022/07/03 11:33:48;;;;;;;2.00;0.40;;;24.70;91.70;;;;;;5029348;28;20485;-75
2022/07/03 11:36:17;;;;;;;2.60;0.60;;;24.70;91.30;;;;;;5032495;28;20500;-75
2022/07/03 11:38:44;;;;;;;1.58;0.35;;;24.40;91.30;;;;;;5029674;28;20027;-73
2022/07/03 11:41:12;;;;;;;2.38;0.40;;;24.10;91.50;;;;;;5034526;28;20040;-73
2022/07/03 11:43:45;;;;;;;1.38;0.32;;;24.10;92.00;;;;;;5034094;28;20036;-74
2022/07/03 11:46:17;;;;;;;1.98;0.50;;;24.30;92.40;;;;;;5034005;28;20033;-74
2022/07/03 11:48:42;;;;;;;3.17;0.30;;;24.60;91.90;;;;;;5036890;28;20467;-73
2022/07/03 11:51:08;;;;;;;1.13;0.20;;;24.70;91.60;;;;;;5031941;28;20053;-73
2022/07/03 11:53:36;;;;;;;2.05;0.10;;;25.00;90.30;;;;;;5032724;28;20041;-73
2022/07/03 11:56:05;;;;;;;1.05;0.20;;;25.10;87.80;;;;;;5034066;28;20040;-73
2022/07/03 11:58:49;;;;;;;1.50;0.20;;;25.10;85.80;;;;;;5035435;28;20084;-74
2022/07/03 12:01:27;;;;;;;3.53;0.20;;;25.20;85.70;;;;;;5032538;28;20033;-73
2022/07/03 12:03:53;;;;;;;1.83;0.25;;;25.10;86.00;;;;;;5027357;28;20048;-74
2022/07/03 12:06:21;;;;;;;2.20;0.30;;;24.90;86.40;;;;;;5028405;28;20646;-73
2022/07/03 12:08:47;;;;;;;2.33;0.20;;;24.80;86.70;;;;;;5031088;28;20124;-72
2022/07/03 12:11:17;;;;;;;1.65;0.20;;;24.80;86.40;;;;;;5034759;28;20120;-74
2022/07/03 12:13:43;;;;;;;1.75;0.20;;;24.80;86.90;;;;;;5026930;28;20024;-73
2022/07/03 12:16:11;;;;;;;2.42;0.17;;;24.80;87.10;;;;;;5024356;28;20103;-73
2022/07/03 12:18:51;;;;;;;1.05;0.30;;;24.90;86.80;;;;;;5025864;28;20029;-73
2022/07/03 12:21:19;;;;;;;0.45;0.10;;;25.10;86.70;;;;;;5028493;28;20044;-72
2022/07/03 12:23:51;;;;;;;1.92;0.40;;;25.10;86.40;;;;;;5030488;28;20026;-73
2022/07/03 12:26:31;;;;;;;3.55;0.10;;;25.20;85.40;;;;;;5031782;28;20124;-73
2022/07/03 12:29:05;;;;;;;2.45;0.20;;;25.20;85.60;;;;;;5032038;28;20033;-75
2022/07/03 12:31:31;;;;;;;1.45;0.20;;;25.20;84.40;;;;;;5027262;28;20444;-74
2022/07/03 12:33:58;;;;;;;0.75;0.10;;;25.30;83.70;;;;;;5031301;28;20057;-74
2022/07/03 12:36:25;;;;;;;1.40;0.20;;;25.40;81.20;;;;;;5028643;28;20120;-74
2022/07/03 12:38:55;;;;;;;1.40;0.13;;;25.40;80.50;;;;;;5034714;28;20029;-75
2022/07/03 12:41:22;;;;;;;0.77;0.10;;;25.50;79.60;;;;;;5027091;28;20036;-74
2022/07/03 12:43:49;;;;;;;1.33;0.20;;;25.50;78.10;;;;;;5033530;28;20032;-73
2022/07/03 12:46:28;;;;;;;2.20;0.13;;;25.40;76.80;;;;;;5025121;28;20029;-74
2022/07/03 12:48:58;;;;;;;1.80;0.20;;;25.20;76.10;;;;;;5024374;28;20053;-74
2022/07/03 12:51:48;;;;;;;1.88;0.13;;;25.20;76.10;;;;;;5038719;28;20988;-74
2022/07/03 12:54:17;;;;;;;2.15;0.17;;;25.50;76.60;;;;;;5032500;28;20536;-74
2022/07/03 12:56:43;;;;;;;2.08;0.20;;;25.60;75.20;;;;;;5038403;28;20059;-74
2022/07/03 12:59:25;;;;;;;1.77;0.20;;;25.80;75.30;;;;;;5031573;28;20053;-74
2022/07/03 13:02:06;;;;;;;1.00;0.20;;;25.80;73.80;;;;;;5033674;28;20078;-74
2022/07/03 13:04:33;;;;;;;2.38;0.30;;;25.70;75.20;;;;;;5039244;28;20029;-75
2022/07/03 13:07:05;;;;;;;1.63;0.10;;;25.50;76.50;;;;;;5041776;28;20424;-74
2022/07/03 13:09:31;;;;;;;1.25;0.20;;;25.30;77.60;;;;;;5030699;28;20028;-75
2022/07/03 13:11:57;;;;;;;0.65;0.20;;;25.00;79.30;;;;;;5030956;28;20497;-75
2022/07/03 13:14:24;;;;;;;0.82;0.20;;;24.90;80.50;;;;;;5033202;28;20055;-75
2022/07/03 13:16:52;;;;;;;2.47;0.30;;;25.00;80.60;;;;;;5030912;28;20036;-74